Time;durP1;ratioP1;P1;durP2;ratioP2;P2;SDS_P1;SDS_P2;PMS_P1;PMS_P2;Temp;Humidity;BMP_temperature;BMP_pressure;BME280_temperature;BME280_humidity;BME280_pressure;Samples;Min_cycle;Max_cycle;Signal;HPM_P1;HPM_P2
2022/06/04 00:00:05;;;;;;;;;;;18.90;99.90;;;;;;5055032;28;20250;-55
2022/06/04 00:02:30;;;;;;;;;;;18.90;99.90;;;;;;5054173;28;20015;-54
2022/06/04 00:04:56;;;;;;;;;;;18.90;99.90;;;;;;5054038;28;19939;-54
2022/06/04 00:07:21;;;;;;;;;;;18.80;99.90;;;;;;5054493;28;20326;-54
2022/06/04 00:15:32;;;;;;;;;;;18.70;99.90;;;;;;5054588;28;20144;-54
2022/06/04 00:17:58;;;;;;;;;;;18.80;99.90;;;;;;5054348;28;20422;-54
2022/06/04 00:20:24;;;;;;;;;;;18.70;99.90;;;;;;5054623;28;19908;-53
2022/06/04 00:22:49;;;;;;;;;;;18.70;99.90;;;;;;5054152;28;19962;-54
2022/06/04 00:25:15;;;;;;;;;;;18.60;99.90;;;;;;5052712;28;19905;-54
2022/06/04 00:27:41;;;;;;;;;;;18.60;99.90;;;;;;5053642;28;20399;-54
2022/06/04 00:30:07;;;;;;;;;;;18.60;99.90;;;;;;5053890;28;19904;-54
2022/06/04 00:32:37;;;;;;;;;;;18.70;99.90;;;;;;5053951;28;19970;-54
2022/06/04 00:35:03;;;;;;;;;;;18.60;99.90;;;;;;5053548;28;19905;-54
2022/06/04 00:37:33;;;;;;;;;;;18.60;99.90;;;;;;5053771;28;19916;-54
2022/06/04 00:39:59;;;;;;;;;;;18.60;99.90;;;;;;5053369;28;19916;-53
2022/06/04 00:42:25;;;;;;;;;;;18.50;99.90;;;;;;5052942;28;19912;-54
2022/06/04 00:45:09;;;;;;;;;;;18.60;99.90;;;;;;5053748;28;20015;-54
2022/06/04 00:47:36;;;;;;;;;;;18.60;99.90;;;;;;5053814;28;19904;-54
2022/06/04 00:50:01;;;;;;;;;;;18.50;99.90;;;;;;5053972;28;19912;-54
2022/06/04 00:52:27;;;;;;;;;;;18.40;99.90;;;;;;5054014;28;20280;-54
2022/06/04 00:54:56;;;;;;;;;;;18.40;99.90;;;;;;5053471;28;19911;-54
2022/06/04 00:57:37;;;;;;;;;;;18.40;99.90;;;;;;5053299;28;19909;-54
2022/06/04 01:00:17;;;;;;;;;;;18.30;99.90;;;;;;5068828;28;19905;-55
2022/06/04 01:02:58;;;;;;;;;;;18.40;99.90;;;;;;5052150;28;19916;-54
2022/06/04 01:05:34;;;;;;;;;;;18.40;99.90;;;;;;5053275;28;19904;-54
2022/06/04 01:07:59;;;;;;;;;;;18.40;99.90;;;;;;5053739;28;19915;-54
2022/06/04 01:10:43;;;;;;;;;;;18.40;99.90;;;;;;5053323;28;20321;-54
2022/06/04 01:13:12;;;;;;;;;;;18.40;99.90;;;;;;5052023;28;19908;-54
2022/06/04 01:15:40;;;;;;;;;;;18.40;99.90;;;;;;5053149;28;20254;-54
2022/06/04 01:18:06;;;;;;;;;;;18.40;99.90;;;;;;5052936;28;19905;-54
2022/06/04 01:20:50;;;;;;;;;;;18.40;99.90;;;;;;5053338;28;20258;-54
2022/06/04 01:23:18;;;;;;;;;;;18.40;99.90;;;;;;5052571;28;19923;-54
2022/06/04 01:26:03;;;;;;;;;;;18.50;99.90;;;;;;5052991;28;19904;-55
2022/06/04 01:28:31;;;;;;;;;;;18.50;99.90;;;;;;5051611;28;19908;-54
2022/06/04 01:30:58;;;;;;;;;;;18.40;99.90;;;;;;5052828;28;19943;-53
2022/06/04 01:33:44;;;;;;;;;;;18.30;99.90;;;;;;5052614;28;19909;-55
2022/06/04 01:36:23;;;;;;;;;;;18.20;99.90;;;;;;5051714;28;19913;-54
2022/06/04 01:38:53;;;;;;;;;;;18.10;99.90;;;;;;5052485;28;20373;-54
2022/06/04 01:41:22;;;;;;;;;;;18.20;99.90;;;;;;5052401;28;20273;-54
2022/06/04 01:43:56;;;;;;;;;;;18.20;99.90;;;;;;5052605;28;19965;-54
2022/06/04 01:46:41;;;;;;;;;;;18.10;99.90;;;;;;5052629;28;20003;-54
2022/06/04 01:49:09;;;;;;;;;;;18.10;99.90;;;;;;5051886;28;20261;-54
2022/06/04 01:51:35;;;;;;;;;;;18.10;99.90;;;;;;5052621;28;19927;-54
2022/06/04 01:54:21;;;;;;;;;;;18.00;99.90;;;;;;5052423;28;19932;-54
2022/06/04 01:56:49;;;;;;;;;;;18.00;99.90;;;;;;5051887;28;19927;-54
2022/06/04 01:59:18;;;;;;;;;;;17.90;99.90;;;;;;5052205;28;20021;-55
2022/06/04 02:01:44;;;;;;;;;;;18.10;99.90;;;;;;5052253;28;19909;-54
2022/06/04 02:04:13;;;;;;;;;;;18.10;99.90;;;;;;5051964;28;20285;-54
2022/06/04 02:07:29;;;;;;;;;;;18.00;99.90;;;;;;5052401;28;19936;-54
2022/06/04 02:09:34;;;;;;;;;;;17.90;99.90;;;;;;5052240;28;19909;-54
2022/06/04 02:12:01;;;;;;;;;;;17.80;99.90;;;;;;5051875;28;19908;-53
2022/06/04 02:14:27;;;;;;;;;;;17.70;99.90;;;;;;5051996;28;19916;-55
2022/06/04 02:16:54;;;;;;;;;;;17.70;99.90;;;;;;5050854;28;19904;-56
2022/06/04 02:19:19;;;;;;;;;;;17.70;99.90;;;;;;5052351;28;20259;-54
2022/06/04 02:21:45;;;;;;;;;;;17.70;99.90;;;;;;5052612;28;20322;-53
2022/06/04 02:24:11;;;;;;;;;;;17.70;99.90;;;;;;5051995;28;19909;-53
2022/06/04 02:26:37;;;;;;;;;;;17.70;99.90;;;;;;5051639;28;20344;-54
2022/06/04 02:29:03;;;;;;;;;;;17.80;99.90;;;;;;5051911;28;19995;-55
2022/06/04 02:31:35;;;;;;;;;;;17.70;99.90;;;;;;5051985;28;20407;-53
2022/06/04 02:34:30;;;;;;;;;;;17.70;99.90;;;;;;5051702;28;19908;-54
2022/06/04 02:37:10;;;;;;;;;;;17.60;99.90;;;;;;5042433;28;19913;-54
2022/06/04 02:39:54;;;;;;;;;;;17.60;99.90;;;;;;5051722;28;19954;-54
2022/06/04 02:42:32;;;;;;;;;;;17.50;99.90;;;;;;5051350;28;20387;-54
2022/06/04 02:45:02;;;;;;;;;;;17.40;99.90;;;;;;5051459;28;20377;-53
2022/06/04 02:47:48;;;;;;;;;;;17.40;99.90;;;;;;5051515;28;20427;-54
2022/06/04 02:50:13;;;;;;;;;;;17.40;99.90;;;;;;5051902;28;19911;-53
2022/06/04 02:52:39;;;;;;;;;;;17.40;99.90;;;;;;5051752;28;19909;-53
2022/06/04 02:55:07;;;;;;;;;;;17.40;99.90;;;;;;5051519;28;19905;-54
2022/06/04 02:57:35;;;;;;;;;;;17.40;99.90;;;;;;5051190;28;20426;-54
2022/06/04 03:00:01;;;;;;;;;;;17.40;99.90;;;;;;5051135;28;19999;-53
2022/06/04 03:02:28;;;;;;;;;;;17.40;99.90;;;;;;5051410;28;19915;-53
2022/06/04 03:04:55;;;;;;;;;;;17.50;99.90;;;;;;5053651;28;19962;-54
2022/06/04 03:07:22;;;;;;;;;;;17.40;99.90;;;;;;5054037;28;19940;-54
2022/06/04 03:09:50;;;;;;;;;;;17.30;99.90;;;;;;5055837;28;19987;-53
2022/06/04 03:12:15;;;;;;;;;;;17.30;99.90;;;;;;5055396;28;19996;-54
2022/06/04 03:14:41;;;;;;;;;;;17.30;99.90;;;;;;5055349;28;20401;-54
2022/06/04 03:17:08;;;;;;;;;;;17.30;99.90;;;;;;5055323;28;19950;-54
2022/06/04 03:19:33;;;;;;;;;;;17.30;99.90;;;;;;5055589;28;19904;-54
2022/06/04 03:22:00;;;;;;;;;;;17.20;99.90;;;;;;5055183;28;19920;-55
2022/06/04 03:24:25;;;;;;;;;;;17.10;99.90;;;;;;5070746;28;19912;-54
2022/06/04 03:26:51;;;;;;;;;;;17.10;99.90;;;;;;5055204;28;20349;-56
2022/06/04 03:29:17;;;;;;;;;;;17.00;99.90;;;;;;5054965;28;19916;-54
2022/06/04 03:31:42;;;;;;;;;;;17.00;99.90;;;;;;5055386;28;19995;-53
2022/06/04 03:34:08;;;;;;;;;;;16.90;99.90;;;;;;5055519;28;19911;-54
2022/06/04 03:36:34;;;;;;;;;;;16.90;99.90;;;;;;5055580;28;19913;-54
2022/06/04 03:39:00;;;;;;;;;;;16.90;99.90;;;;;;5055445;28;20686;-54
2022/06/04 03:41:25;;;;;;;;;;;16.80;99.90;;;;;;5055138;28;19904;-54
2022/06/04 03:43:54;;;;;;;;;;;16.80;99.90;;;;;;5054910;28;19913;-53
2022/06/04 03:46:27;;;;;;;;;;;16.90;99.90;;;;;;5055036;28;19911;-54
2022/06/04 03:48:53;;;;;;;;;;;16.90;99.90;;;;;;5054967;28;19974;-54
2022/06/04 03:51:19;;;;;;;;;;;16.90;99.90;;;;;;5055027;28;19912;-53
2022/06/04 03:53:44;;;;;;;;;;;16.90;99.90;;;;;;5054759;28;19905;-56
2022/06/04 03:56:10;;;;;;;;;;;16.90;99.90;;;;;;5054715;28;19911;-53
2022/06/04 03:58:35;;;;;;;;;;;16.80;99.90;;;;;;5054772;28;20272;-53
2022/06/04 04:01:11;;;;;;;;;;;16.80;99.90;;;;;;5054729;28;20368;-53
2022/06/04 04:03:36;;;;;;;;;;;16.80;99.90;;;;;;5054580;28;19970;-54
2022/06/04 04:06:02;;;;;;;;;;;16.80;99.90;;;;;;5054234;28;19909;-53
2022/06/04 04:08:27;;;;;;;;;;;16.90;99.90;;;;;;5054564;28;19905;-53
2022/06/04 04:10:53;;;;;;;;;;;16.80;99.90;;;;;;5054867;28;19912;-54
2022/06/04 04:13:18;;;;;;;;;;;16.80;99.90;;;;;;5053165;28;19915;-53
2022/06/04 04:15:45;;;;;;;;;;;16.80;99.90;;;;;;5053948;28;19904;-53
2022/06/04 04:18:10;;;;;;;;;;;16.80;99.90;;;;;;5054234;28;20332;-54
2022/06/04 04:20:37;;;;;;;;;;;16.70;99.90;;;;;;5054575;28;19905;-54
2022/06/04 04:23:05;;;;;;;;;;;16.70;99.90;;;;;;5054002;28;19908;-53
2022/06/04 04:25:30;;;;;;;;;;;16.70;99.90;;;;;;5054020;28;20346;-53
2022/06/04 04:27:57;;;;;;;;;;;16.60;99.90;;;;;;5054257;28;19943;-54
2022/06/04 04:30:24;;;;;;;;;;;16.60;99.90;;;;;;5054814;28;19908;-53
2022/06/04 04:32:50;;;;;;;;;;;16.50;99.90;;;;;;5054177;28;20468;-54
2022/06/04 04:35:17;;;;;;;;;;;16.50;99.90;;;;;;5053611;28;19955;-53
2022/06/04 04:37:42;;;;;;;;;;;16.60;99.90;;;;;;5053868;28;19971;-54
2022/06/04 04:40:09;;;;;;;;;;;16.60;99.90;;;;;;5053985;28;20389;-54
2022/06/04 04:42:34;;;;;;;;;;;16.50;99.90;;;;;;5053587;28;19956;-54
2022/06/04 04:45:00;;;;;;;;;;;16.60;99.90;;;;;;5053628;28;19912;-54
2022/06/04 04:47:25;;;;;;;;;;;16.60;99.90;;;;;;5053710;28;19904;-54
2022/06/04 04:49:51;;;;;;;;;;;16.70;99.90;;;;;;5053841;28;19905;-54
2022/06/04 04:52:16;;;;;;;;;;;16.70;99.90;;;;;;5053327;28;19909;-53
2022/06/04 04:54:42;;;;;;;;;;;16.70;99.90;;;;;;5053768;28;20365;-54
2022/06/04 04:57:07;;;;;;;;;;;16.60;99.90;;;;;;5053454;28;20433;-53
2022/06/04 04:59:33;;;;;;;;;;;16.50;99.90;;;;;;5053451;28;19904;-53
2022/06/04 05:01:58;;;;;;;;;;;16.50;99.90;;;;;;5053290;28;20014;-54
2022/06/04 05:04:24;;;;;;;;;;;16.50;99.90;;;;;;5053059;28;20054;-54
2022/06/04 05:06:49;;;;;;;;;;;16.50;99.90;;;;;;5053331;28;19912;-54
2022/06/04 05:09:15;;;;;;;;;;;16.40;99.90;;;;;;5053974;28;19905;-54
2022/06/04 05:11:40;;;;;;;;;;;16.40;99.90;;;;;;5053851;28;19970;-54
2022/06/04 05:14:06;;;;;;;;;;;16.40;99.90;;;;;;5053189;28;19909;-54
2022/06/04 05:16:35;;;;;;;;;;;16.40;99.90;;;;;;5053180;28;19909;-52
2022/06/04 05:19:03;;;;;;;;;;;16.40;99.90;;;;;;5052850;28;19905;-52
2022/06/04 05:21:37;;;;;;;;;;;16.30;99.90;;;;;;5051738;28;19991;-52
2022/06/04 05:24:04;;;;;;;;;;;16.30;99.90;;;;;;5052886;28;20384;-53
2022/06/04 05:26:30;;;;;;;;;;;16.40;99.90;;;;;;5052304;28;20007;-53
2022/06/04 05:28:55;;;;;;;;;;;16.50;99.90;;;;;;5052672;28;19948;-53
2022/06/04 05:31:21;;;;;;;;;;;16.50;99.90;;;;;;5052432;28;20348;-53
2022/06/04 05:33:47;;;;;;;;;;;16.60;99.90;;;;;;5052571;28;19905;-53
2022/06/04 05:36:12;;;;;;;;;;;16.50;99.90;;;;;;5052464;28;19913;-52
2022/06/04 05:38:38;;;;;;;;;;;16.60;99.90;;;;;;5052279;28;20302;-52
2022/06/04 05:41:05;;;;;;;;;;;16.60;99.90;;;;;;5052525;28;20357;-52
2022/06/04 05:43:31;;;;;;;;;;;16.60;99.90;;;;;;5052093;28;19958;-52
2022/06/04 05:45:58;;;;;;;;;;;16.60;99.90;;;;;;5050834;28;19909;-53
2022/06/04 05:48:23;;;;;;;;;;;16.50;99.90;;;;;;5052030;28;19904;-54
2022/06/04 05:50:49;;;;;;;;;;;16.60;99.90;;;;;;5052158;28;19919;-54
2022/06/04 05:53:15;;;;;;;;;;;16.70;99.90;;;;;;5050637;28;19983;-53
2022/06/04 05:55:40;;;;;;;;;;;16.60;99.90;;;;;;5051763;28;19912;-53
2022/06/04 05:58:06;;;;;;;;;;;16.70;99.90;;;;;;5050668;28;19954;-55
2022/06/04 06:00:31;;;;;;;;;;;16.60;99.90;;;;;;5052155;28;19908;-52
2022/06/04 06:02:57;;;;;;;;;;;16.60;99.90;;;;;;5051702;28;19912;-52
2022/06/04 06:05:22;;;;;;;;;;;16.50;99.90;;;;;;5051632;28;19909;-52
2022/06/04 06:07:48;;;;;;;;;;;16.60;99.90;;;;;;5051724;28;20280;-51
2022/06/04 06:10:13;;;;;;;;;;;16.60;99.90;;;;;;5051881;28;19909;-53
2022/06/04 06:12:39;;;;;;;;;;;16.70;99.90;;;;;;5050308;28;19966;-53
2022/06/04 06:15:04;;;;;;;;;;;16.90;99.90;;;;;;5050022;28;20007;-54
2022/06/04 06:17:30;;;;;;;;;;;16.80;99.90;;;;;;5051404;28;20332;-54
2022/06/04 06:19:55;;;;;;;;;;;16.80;99.90;;;;;;5051511;28;19966;-51
2022/06/04 06:22:22;;;;;;;;;;;16.80;99.90;;;;;;5051227;28;19904;-53
2022/06/04 06:24:47;;;;;;;;;;;16.90;99.90;;;;;;5051387;28;19951;-53
2022/06/04 06:27:13;;;;;;;;;;;16.90;99.90;;;;;;5066827;28;19961;-53
2022/06/04 06:29:38;;;;;;;;;;;17.00;99.90;;;;;;5051354;28;20319;-53
2022/06/04 06:32:04;;;;;;;;;;;17.00;99.90;;;;;;5051485;28;19907;-53
2022/06/04 06:34:30;;;;;;;;;;;17.00;99.90;;;;;;5051226;28;19920;-53
2022/06/04 06:36:56;;;;;;;;;;;16.90;99.90;;;;;;5051316;28;19912;-54
2022/06/04 06:39:22;;;;;;;;;;;17.00;99.90;;;;;;5051645;28;19905;-53
2022/06/04 06:41:48;;;;;;;;;;;17.10;99.90;;;;;;5051257;28;20258;-53
2022/06/04 06:44:13;;;;;;;;;;;17.10;99.90;;;;;;5051086;28;19912;-53
2022/06/04 06:46:41;;;;;;;;;;;17.10;99.90;;;;;;5051104;28;19915;-52
2022/06/04 06:49:17;;;;;;;;;;;17.10;99.90;;;;;;5051249;28;19928;-53
2022/06/04 06:51:49;;;;;;;;;;;17.20;99.90;;;;;;5049778;28;19905;-53
2022/06/04 06:54:15;;;;;;;;;;;17.10;99.90;;;;;;5051367;28;19904;-53
2022/06/04 06:56:42;;;;;;;;;;;17.20;99.90;;;;;;5051048;28;20353;-52
2022/06/04 06:59:07;;;;;;;;;;;17.50;99.90;;;;;;5051247;28;19905;-53
2022/06/04 07:01:33;;;;;;;;;;;18.00;99.90;;;;;;5051221;28;19958;-54
2022/06/04 07:04:01;;;;;;;;;;;18.30;99.90;;;;;;5050553;28;19915;-53
2022/06/04 07:06:29;;;;;;;;;;;18.60;99.90;;;;;;5050805;28;19904;-53
2022/06/04 07:08:54;;;;;;;;;;;19.00;99.90;;;;;;5051089;28;19984;-53
2022/06/04 07:11:20;;;;;;;;;;;19.60;99.90;;;;;;5051140;28;20004;-53
2022/06/04 07:13:45;;;;;;;;;;;20.20;99.90;;;;;;5050648;28;19908;-53
2022/06/04 07:16:11;;;;;;;;;;;20.30;99.90;;;;;;5050813;28;20297;-53
2022/06/04 07:18:36;;;;;;;;;;;20.10;99.90;;;;;;5050854;28;19908;-52
2022/06/04 07:21:05;;;;;;;;;;;19.70;99.90;;;;;;5050978;28;20324;-52
2022/06/04 07:23:34;;;;;;;;;;;19.60;99.90;;;;;;5050622;28;19920;-52
2022/06/04 07:26:00;;;;;;;;;;;19.60;99.90;;;;;;5050471;28;19915;-52
2022/06/04 07:28:26;;;;;;;;;;;19.80;99.90;;;;;;5050507;28;19905;-52
2022/06/04 07:30:51;;;;;;;;;;;19.80;99.90;;;;;;5050912;28;19905;-54
2022/06/04 07:33:17;;;;;;;;;;;20.10;99.90;;;;;;5050770;28;19912;-53
2022/06/04 07:35:49;;;;;;;;;;;20.10;99.90;;;;;;5050426;28;20288;-53
2022/06/04 07:38:15;;;;;;;;;;;20.40;99.90;;;;;;5050512;28;19911;-51
2022/06/04 07:40:41;;;;;;;;;;;21.10;99.90;;;;;;5050870;28;19905;-51
2022/06/04 07:43:06;;;;;;;;;;;21.40;99.70;;;;;;5050861;28;20383;-51
2022/06/04 07:45:33;;;;;;;;;;;21.40;99.30;;;;;;5050646;28;19950;-51
2022/06/04 07:47:59;;;;;;;;;;;21.50;99.20;;;;;;5050935;28;19909;-52
2022/06/04 07:50:24;;;;;;;;;;;21.90;98.40;;;;;;5052859;28;19912;-52
2022/06/04 07:52:50;;;;;;;;;;;21.60;98.50;;;;;;5052787;28;19909;-52
2022/06/04 07:55:15;;;;;;;;;;;21.80;98.30;;;;;;5054333;28;19908;-52
2022/06/04 07:57:41;;;;;;;;;;;22.10;97.40;;;;;;5054160;28;20349;-52
2022/06/04 08:00:07;;;;;;;;;;;22.40;96.80;;;;;;5054421;28;19911;-52
2022/06/04 08:02:32;;;;;;;;;;;22.60;96.50;;;;;;5053935;28;20266;-53
2022/06/04 08:04:58;;;;;;;;;;;22.90;95.90;;;;;;5052651;28;19905;-52
2022/06/04 08:07:24;;;;;;;;;;;24.00;94.50;;;;;;5053816;28;19904;-52
2022/06/04 08:09:50;;;;;;;;;;;24.50;94.00;;;;;;5054219;28;19908;-52
2022/06/04 08:12:17;;;;;;;;;;;24.20;93.20;;;;;;5053628;28;19931;-52
2022/06/04 08:14:42;;;;;;;;;;;24.20;93.10;;;;;;5054289;28;20297;-53
2022/06/04 08:17:08;;;;;;;;;;;24.90;92.90;;;;;;5053898;28;19905;-52
2022/06/04 08:19:33;;;;;;;;;;;25.20;92.20;;;;;;5054179;28;19912;-54
2022/06/04 08:21:59;;;;;;;;;;;25.20;91.50;;;;;;5053657;28;19909;-53
2022/06/04 08:24:25;;;;;;;;;;;24.90;91.90;;;;;;5053473;28;19935;-54
2022/06/04 08:26:58;;;;;;;;;;;25.30;90.90;;;;;;5053621;28;20001;-53
2022/06/04 08:29:24;;;;;;;;;;;25.40;90.30;;;;;;5052559;28;19905;-53
2022/06/04 08:31:50;;;;;;;;;;;25.00;90.50;;;;;;5053459;28;19916;-54
2022/06/04 08:34:15;;;;;;;;;;;24.50;91.20;;;;;;5053798;28;19905;-53
2022/06/04 08:36:41;;;;;;;;;;;24.10;91.60;;;;;;5053647;28;19919;-52
2022/06/04 08:39:07;;;;;;;;;;;24.00;92.40;;;;;;5052270;28;19962;-52
2022/06/04 08:41:38;;;;;;;;;;;24.10;92.20;;;;;;5053458;28;19904;-53
2022/06/04 08:44:07;;;;;;;;;;;24.30;91.90;;;;;;5053256;28;20377;-53
2022/06/04 08:46:44;;;;;;;;;;;25.10;90.90;;;;;;5053552;28;19966;-53
2022/06/04 08:49:14;;;;;;;;;;;25.00;90.80;;;;;;5053646;28;19908;-53
2022/06/04 08:51:41;;;;;;;;;;;25.80;90.10;;;;;;5053272;28;20337;-53
2022/06/04 08:59:45;;;;;;;;;;;26.70;87.70;;;;;;5053484;28;20379;-53
2022/06/04 09:02:13;;;;;;;;;;;26.80;86.50;;;;;;5051884;28;20277;-53
2022/06/04 09:04:44;;;;;;;;;;;27.30;84.70;;;;;;5053029;28;19936;-53
2022/06/04 09:07:10;;;;;;;;;;;27.50;84.10;;;;;;5052815;28;19916;-54
2022/06/04 09:09:38;;;;;;;;;;;27.00;84.20;;;;;;5052904;28;20132;-54
2022/06/04 09:12:10;;;;;;;;;;;26.20;85.50;;;;;;5052810;28;19905;-53
2022/06/04 09:14:41;;;;;;;;;;;25.50;87.00;;;;;;5052490;28;20397;-53
2022/06/04 09:17:12;;;;;;;;;;;24.60;90.00;;;;;;5053233;28;19904;-54
2022/06/04 09:19:39;;;;;;;;;;;24.30;91.00;;;;;;5051742;28;19904;-54
2022/06/04 09:22:18;;;;;;;;;;;24.10;91.50;;;;;;5053500;28;19958;-54
2022/06/04 09:24:43;;;;;;;;;;;23.80;92.60;;;;;;5052887;28;20365;-54
2022/06/04 09:27:16;;;;;;;;;;;23.70;92.30;;;;;;5053359;28;19929;-54
2022/06/04 09:29:47;;;;;;;;;;;23.50;92.60;;;;;;5053245;28;19908;-54
2022/06/04 09:32:44;;;;;;;;;;;23.30;92.60;;;;;;5068164;28;19905;-54
2022/06/04 09:35:10;;;;;;;;;;;23.10;93.10;;;;;;5053043;28;19904;-54
2022/06/04 09:37:47;;;;;;;;;;;22.90;94.10;;;;;;5052938;28;19912;-54
2022/06/04 09:40:19;;;;;;;;;;;22.80;94.30;;;;;;5067997;28;19912;-54
2022/06/04 09:42:45;;;;;;;;;;;23.00;94.10;;;;;;5052736;28;20308;-54
2022/06/04 09:45:16;;;;;;;;;;;23.80;93.20;;;;;;5052550;28;19911;-53
2022/06/04 09:47:47;;;;;;;;;;;24.90;92.70;;;;;;5052453;28;19931;-54
2022/06/04 09:50:22;;;;;;;;;;;25.90;90.30;;;;;;5052753;28;19920;-53
2022/06/04 09:52:57;;;;;;;;;;;26.40;90.10;;;;;;5052829;28;19909;-54
2022/06/04 09:55:24;;;;;;;;;;;27.10;89.50;;;;;;5052784;28;19987;-54
2022/06/04 09:57:57;;;;;;;;;;;27.50;86.30;;;;;;5053239;28;19912;-54
2022/06/04 10:00:24;;;;;;;;;;;27.40;85.10;;;;;;5053381;28;19920;-54
2022/06/04 10:02:54;;;;;;;;;;;27.80;85.70;;;;;;5052669;28;20356;-53
2022/06/04 10:05:21;;;;;;;;;;;27.60;85.20;;;;;;5052141;28;19991;-54
2022/06/04 10:07:47;;;;;;;;;;;27.50;85.70;;;;;;5052586;28;19905;-54
2022/06/04 10:10:21;;;;;;;;;;;27.30;86.20;;;;;;5052149;28;19927;-54
2022/06/04 10:15:41;;;;;;;;;;;27.50;85.80;;;;;;5052472;28;20000;-54
2022/06/04 10:18:18;;;;;;;;;;;27.80;84.80;;;;;;5052063;28;19915;-53
2022/06/04 10:21:10;;;;;;;;;;;28.00;84.00;;;;;;5052186;28;20658;-54
2022/06/04 10:23:46;;;;;;;;;;;28.20;82.80;;;;;;5049995;28;19909;-53
2022/06/04 10:26:15;;;;;;;;;;;28.00;84.40;;;;;;5052070;28;20289;-53
2022/06/04 10:28:43;;;;;;;;;;;28.50;82.60;;;;;;5051790;28;19913;-53
2022/06/04 10:31:27;;;;;;;;;;;27.40;85.00;;;;;;5066975;28;20357;-54
2022/06/04 10:33:58;;;;;;;;;;;27.20;86.40;;;;;;5051597;28;19904;-55
2022/06/04 10:36:29;;;;;;;;;;;26.70;87.90;;;;;;5051725;28;20653;-54
2022/06/04 10:39:27;;;;;;;;;;;27.10;87.20;;;;;;5051888;28;19916;-54
2022/06/04 10:41:57;;;;;;;;;;;27.50;85.30;;;;;;5029188;28;19904;-54
2022/06/04 10:44:44;;;;;;;;;;;28.30;84.10;;;;;;5051866;28;20011;-54
2022/06/04 10:47:23;;;;;;;;;;;28.40;82.70;;;;;;5050625;28;19909;-54
2022/06/04 10:49:49;;;;;;;;;;;28.50;81.40;;;;;;5051730;28;19916;-54
2022/06/04 10:52:25;;;;;;;;;;;28.50;82.30;;;;;;5052212;28;19905;-54
2022/06/04 10:54:57;;;;;;;;;;;28.60;81.40;;;;;;5051255;28;20005;-54
2022/06/04 10:57:22;;;;;;;;;;;28.30;81.20;;;;;;5051400;28;19912;-54
2022/06/04 10:59:48;;;;;;;;;;;28.60;82.20;;;;;;5051346;28;19909;-53
2022/06/04 11:02:29;;;;;;;;;;;28.70;81.60;;;;;;5051673;28;19905;-54
2022/06/04 11:05:13;;;;;;;;;;;28.60;81.80;;;;;;5051342;28;20254;-54
2022/06/04 11:07:52;;;;;;;;;;;28.40;81.90;;;;;;5051361;28;19930;-54
2022/06/04 11:10:19;;;;;;;;;;;27.60;84.30;;;;;;5051775;28;20389;-54
2022/06/04 11:12:44;;;;;;;;;;;27.50;85.20;;;;;;5051124;28;19916;-54
2022/06/04 11:15:17;;;;;;;;;;;27.40;84.70;;;;;;5051225;28;20285;-53
2022/06/04 11:17:46;;;;;;;;;;;27.20;85.30;;;;;;5051332;28;19935;-54
2022/06/04 11:20:22;;;;;;;;;;;27.50;86.30;;;;;;5051362;28;19904;-54
2022/06/04 11:22:55;;;;;;;;;;;27.80;84.50;;;;;;5049909;28;19955;-54
2022/06/04 11:25:28;;;;;;;;;;;28.10;83.90;;;;;;5052723;28;20362;-54
2022/06/04 11:28:13;;;;;;;;;;;28.50;82.20;;;;;;5055327;28;20344;-55
2022/06/04 11:30:57;;;;;;;;;;;28.70;81.90;;;;;;5055491;28;19911;-54
2022/06/04 11:33:26;;;;;;;;;;;28.90;82.30;;;;;;5055540;28;19905;-54
2022/06/04 11:36:06;;;;;;;;;;;29.20;81.90;;;;;;5055544;28;19976;-54
2022/06/04 11:38:50;;;;;;;;;;;29.10;81.20;;;;;;5055622;28;20413;-53
2022/06/04 11:41:26;;;;;;;;;;;29.60;80.10;;;;;;5055447;28;20361;-53
2022/06/04 11:43:55;;;;;;;;;;;29.50;79.80;;;;;;5055232;28;19920;-53
2022/06/04 11:46:38;;;;;;;;;;;29.10;79.70;;;;;;5070015;28;20030;-53
2022/06/04 11:49:12;;;;;;;;;;;29.20;81.20;;;;;;5054336;28;19952;-53
2022/06/04 11:52:02;;;;;;;;;;;29.80;78.50;;;;;;5054580;28;20002;-53
2022/06/04 11:54:46;;;;;;;;;;;29.70;78.00;;;;;;5054612;28;19908;-54
2022/06/04 11:57:23;;;;;;;;;;;29.50;78.70;;;;;;5053925;28;19911;-52
2022/06/04 12:00:02;;;;;;;;;;;29.20;80.10;;;;;;5054219;28;19916;-52
2022/06/04 12:02:32;;;;;;;;;;;29.40;79.20;;;;;;5053698;28;19904;-53
2022/06/04 12:05:03;;;;;;;;;;;29.30;80.10;;;;;;5053970;28;19912;-53
2022/06/04 12:07:40;;;;;;;;;;;29.60;79.30;;;;;;5054414;28;20274;-53
2022/06/04 12:10:05;;;;;;;;;;;30.10;78.30;;;;;;5054271;28;19909;-54
2022/06/04 12:12:37;;;;;;;;;;;30.10;79.60;;;;;;5053982;28;19950;-53
2022/06/04 12:15:21;;;;;;;;;;;30.60;76.20;;;;;;5053807;28;20331;-52
2022/06/04 12:17:52;;;;;;;;;;;31.00;76.00;;;;;;5053891;28;19905;-52
2022/06/04 12:26:47;;;;;;;;;;;30.90;75.60;;;;;;5011197;28;19911;-52
2022/06/04 12:29:27;;;;;;;;;;;31.40;74.20;;;;;;5053520;28;20369;-53
2022/06/04 12:32:18;;;;;;;;;;;31.10;75.70;;;;;;5053772;28;19909;-53
2022/06/04 12:34:44;;;;;;;;;;;31.70;74.60;;;;;;5053714;28;20361;-53
2022/06/04 12:37:24;;;;;;;;;;;31.80;73.90;;;;;;5053065;28;20015;-53
2022/06/04 12:39:52;;;;;;;;;;;31.60;73.80;;;;;;5053540;28;19916;-53
2022/06/04 12:42:18;;;;;;;;;;;31.40;74.40;;;;;;5053231;28;19904;-53
2022/06/04 12:44:55;;;;;;;;;;;31.20;73.60;;;;;;5053469;28;19962;-54
2022/06/04 12:47:22;;;;;;;;;;;30.40;75.50;;;;;;5052034;28;19919;-54
2022/06/04 12:49:56;;;;;;;;;;;30.50;75.60;;;;;;5053621;28;20286;-54
2022/06/04 12:52:29;;;;;;;;;;;30.80;75.80;;;;;;5053069;28;19935;-52
2022/06/04 12:55:05;;;;;;;;;;;31.70;74.20;;;;;;5053215;28;19942;-52
2022/06/04 12:57:30;;;;;;;;;;;32.20;73.70;;;;;;5052987;28;19915;-52
2022/06/04 13:00:31;;;;;;;;;;;32.10;72.10;;;;;;5053149;28;20361;-52
2022/06/04 13:02:57;;;;;;;;;;;31.20;73.90;;;;;;5010526;28;19913;-51
2022/06/04 13:05:25;;;;;;;;;;;30.90;75.40;;;;;;5038807;28;19905;-51
2022/06/04 13:07:54;;;;;;;;;;;30.80;75.10;;;;;;5052803;28;19911;-52
2022/06/04 13:10:22;;;;;;;;;;;31.10;74.80;;;;;;5052781;28;20002;-52
2022/06/04 13:12:59;;;;;;;;;;;31.40;73.90;;;;;;5052977;28;19951;-53
2022/06/04 13:15:33;;;;;;;;;;;31.60;74.50;;;;;;5052935;28;20338;-53
2022/06/04 13:17:59;;;;;;;;;;;31.80;72.90;;;;;;5052986;28;19911;-53
2022/06/04 13:20:31;;;;;;;;;;;31.20;74.40;;;;;;5053130;28;20434;-53
2022/06/04 13:22:59;;;;;;;;;;;31.40;74.20;;;;;;5052902;28;20007;-53
2022/06/04 13:25:51;;;;;;;;;;;31.50;74.70;;;;;;5053327;28;19912;-54
2022/06/04 13:28:24;;;;;;;;;;;32.30;72.70;;;;;;5050611;28;19905;-53
2022/06/04 13:30:50;;;;;;;;;;;32.10;72.70;;;;;;5052591;28;19913;-53
2022/06/04 13:33:16;;;;;;;;;;;31.70;73.70;;;;;;5052570;28;20281;-53
2022/06/04 13:35:43;;;;;;;;;;;31.80;74.60;;;;;;5052340;28;19904;-53
2022/06/04 13:38:16;;;;;;;;;;;31.80;73.90;;;;;;5052232;28;20000;-54
2022/06/04 13:40:41;;;;;;;;;;;31.50;73.60;;;;;;5053080;28;19944;-52
2022/06/04 13:43:07;;;;;;;;;;;31.00;74.80;;;;;;5051791;28;19971;-53
2022/06/04 13:45:36;;;;;;;;;;;30.60;75.80;;;;;;5052242;28;19944;-53
2022/06/04 13:48:21;;;;;;;;;;;30.60;75.40;;;;;;5052288;28;19943;-53
2022/06/04 13:50:56;;;;;;;;;;;31.40;73.90;;;;;;5052067;28;19958;-53
2022/06/04 13:53:24;;;;;;;;;;;31.20;73.20;;;;;;5052067;28;19975;-51
2022/06/04 13:55:52;;;;;;;;;;;31.50;74.60;;;;;;5052257;28;19913;-51
2022/06/04 13:58:20;;;;;;;;;;;31.20;74.30;;;;;;5051842;28;19916;-51
2022/06/04 14:00:47;;;;;;;;;;;31.30;76.10;;;;;;5052395;28;20015;-51
2022/06/04 14:03:15;;;;;;;;;;;31.70;73.10;;;;;;5051885;28;19958;-51
2022/06/04 14:05:51;;;;;;;;;;;31.80;74.50;;;;;;5052038;28;19909;-54
2022/06/04 14:08:19;;;;;;;;;;;30.80;75.80;;;;;;5050819;28;20440;-53
2022/06/04 14:11:00;;;;;;;;;;;30.80;75.90;;;;;;5052125;28;19959;-53
2022/06/04 14:13:44;;;;;;;;;;;30.70;75.20;;;;;;5051599;28;19904;-53
2022/06/04 14:16:13;;;;;;;;;;;31.40;74.70;;;;;;5051510;28;19905;-53
2022/06/04 14:18:54;;;;;;;;;;;32.60;72.70;;;;;;5051440;28;19909;-53
2022/06/04 14:21:31;;;;;;;;;;;32.60;71.90;;;;;;5051825;28;19908;-52
2022/06/04 14:24:15;;;;;;;;;;;32.90;71.30;;;;;;5051657;28;19938;-51
2022/06/04 14:26:50;;;;;;;;;;;33.30;70.80;;;;;;5051435;28;19991;-55
2022/06/04 14:29:15;;;;;;;;;;;33.70;69.30;;;;;;5051601;28;19904;-52
2022/06/04 14:31:41;;;;;;;;;;;33.10;68.90;;;;;;5051272;28;19904;-52
2022/06/04 14:34:07;;;;;;;;;;;32.70;69.50;;;;;;5051392;28;19909;-53
2022/06/04 14:36:33;;;;;;;;;;;33.10;69.70;;;;;;5051156;28;19920;-53
2022/06/04 14:38:59;;;;;;;;;;;33.30;68.90;;;;;;5051271;28;19905;-53
2022/06/04 14:41:30;;;;;;;;;;;32.50;71.70;;;;;;5051499;28;19915;-53
2022/06/04 14:44:11;;;;;;;;;;;32.10;71.70;;;;;;5050956;28;19913;-53
2022/06/04 14:46:55;;;;;;;;;;;32.60;71.50;;;;;;5050977;28;20300;-53
2022/06/04 14:49:29;;;;;;;;;;;32.80;70.60;;;;;;5051405;28;20392;-53
2022/06/04 14:52:19;;;;;;;;;;;32.20;71.20;;;;;;5051482;28;20003;-53